Аэропорт: Кадала. Чита

ICAO: UIAA

METAR:
2019/05/26 14:00
UIAA 261400Z AUTO 35003MPS 9999 NCD 07/M03 Q1020 RMK QFE706/0941
METAR:
2019/05/26 12:24
TAF TAF UIAA 261100Z 2612/2712 30003G08MPS 9999 SCT040CB